Time;durP1;ratioP1;P1;durP2;ratioP2;P2;SDS_P1;SDS_P2;PMS_P1;PMS_P2;Temp;Humidity;BMP_temperature;BMP_pressure;BME280_temperature;BME280_humidity;BME280_pressure;Samples;Min_cycle;Max_cycle;Signal;HPM_P1;HPM_P2
2021/04/12 00:00:22;;;;;;;7.13;3.17;;;;;;;;;;5113229;28;20505;-59
2021/04/12 00:02:54;;;;;;;5.93;2.88;;;;;;;;;;5095982;28;20118;-59
2021/04/12 00:05:29;;;;;;;12.00;3.20;;;;;;;;;;5112052;28;20035;-59
2021/04/12 00:08:10;;;;;;;6.75;3.38;;;;;;;;;;5112732;28;20141;-59
2021/04/12 00:10:48;;;;;;;5.88;3.30;;;;;;;;;;5095604;28;20077;-59
2021/04/12 00:13:16;;;;;;;5.05;2.97;;;;;;;;;;5111963;28;20519;-59
2021/04/12 00:15:45;;;;;;;11.20;2.95;;;;;;;;;;5112586;28;20098;-60
2021/04/12 00:18:20;;;;;;;10.15;2.90;;;;;;;;;;5111862;28;20059;-59
2021/04/12 00:20:50;;;;;;;10.23;2.88;;;;;;;;;;5113908;28;20027;-59
2021/04/12 00:23:26;;;;;;;6.10;2.90;;;;;;;;;;5112984;28;20028;-58
2021/04/12 00:25:56;;;;;;;6.90;2.85;;;;;;;;;;5113874;28;20085;-59
2021/04/12 00:28:28;;;;;;;7.45;3.90;;;;;;;;;;5113287;28;20031;-59
2021/04/12 00:31:12;;;;;;;8.35;2.88;;;;;;;;;;5112215;28;20032;-59
2021/04/12 00:33:40;;;;;;;6.00;2.47;;;;;;;;;;5113354;28;20049;-59
2021/04/12 00:36:10;;;;;;;7.43;3.08;;;;;;;;;;5113437;28;20020;-59
2021/04/12 00:38:58;;;;;;;8.70;3.15;;;;;;;;;;5112057;28;20043;-59
2021/04/12 00:41:44;;;;;;;11.23;3.20;;;;;;;;;;5112381;28;20031;-59
2021/04/12 00:44:28;;;;;;;7.93;3.15;;;;;;;;;;5111360;28;20078;-60
2021/04/12 00:46:53;;;;;;;7.82;3.20;;;;;;;;;;5111845;28;20057;-59
2021/04/12 00:49:26;;;;;;;12.60;3.88;;;;;;;;;;5111176;28;20040;-59
2021/04/12 00:51:52;;;;;;;6.75;2.85;;;;;;;;;;5111906;28;20032;-59
2021/04/12 00:54:27;;;;;;;11.48;3.63;;;;;;;;;;5093934;28;20016;-59
2021/04/12 00:56:56;;;;;;;5.30;3.28;;;;;;;;;;5113253;28;20106;-59
2021/04/12 00:59:37;;;;;;;5.95;3.20;;;;;;;;;;5111994;28;20043;-59
2021/04/12 01:02:13;;;;;;;11.57;4.22;;;;;;;;;;5111168;28;20030;-59
2021/04/12 01:04:39;;;;;;;9.90;3.65;;;;;;;;;;5094773;28;20024;-59
2021/04/12 01:07:15;;;;;;;10.00;3.45;;;;;;;;;;5111529;28;20039;-59
2021/04/12 01:09:59;;;;;;;7.93;3.55;;;;;;;;;;5112372;28;20472;-59
2021/04/12 01:12:39;;;;;;;8.77;3.20;;;;;;;;;;5111823;28;20032;-59
2021/04/12 01:15:05;;;;;;;9.57;2.83;;;;;;;;;;5111287;28;20027;-59
2021/04/12 01:17:36;;;;;;;9.60;3.47;;;;;;;;;;5112087;28;20031;-59
2021/04/12 01:20:20;;;;;;;7.68;3.42;;;;;;;;;;5112420;28;20030;-59
2021/04/12 01:23:04;;;;;;;6.75;3.30;;;;;;;;;;5112623;28;20495;-59
2021/04/12 01:25:45;;;;;;;8.55;3.35;;;;;;;;;;5111546;28;20027;-59
2021/04/12 01:28:28;;;;;;;7.32;3.60;;;;;;;;;;5112764;28;20027;-60
2021/04/12 01:31:13;;;;;;;8.38;3.42;;;;;;;;;;5111019;28;20023;-59
2021/04/12 01:34:13;;;;;;;10.52;3.72;;;;;;;;;;5111701;28;20031;-59
2021/04/12 01:36:57;;;;;;;10.38;3.10;;;;;;;;;;5111849;28;20035;-59
2021/04/12 01:39:40;;;;;;;7.60;3.60;;;;;;;;;;5110255;28;20044;-59
2021/04/12 01:42:24;;;;;;;9.43;3.53;;;;;;;;;;5110896;28;20024;-59
2021/04/12 01:44:50;;;;;;;7.65;3.30;;;;;;;;;;5111904;28;20357;-60
2021/04/12 01:47:24;;;;;;;8.73;4.03;;;;;;;;;;5111921;28;20019;-59
2021/04/12 01:50:03;;;;;;;7.90;3.17;;;;;;;;;;5112323;28;20089;-59
2021/04/12 01:52:40;;;;;;;12.77;3.70;;;;;;;;;;5112548;28;20045;-61
2021/04/12 01:55:08;;;;;;;9.40;3.25;;;;;;;;;;5113493;28;20084;-60
2021/04/12 01:57:39;;;;;;;9.07;3.60;;;;;;;;;;5111841;28;20027;-60
2021/04/12 02:00:05;;;;;;;6.85;3.38;;;;;;;;;;5111738;28;20058;-60
2021/04/12 02:02:57;;;;;;;7.75;3.35;;;;;;;;;;5111343;28;20050;-61
2021/04/12 02:05:33;;;;;;;7.18;3.08;;;;;;;;;;5110563;28;20039;-60
2021/04/12 02:07:58;;;;;;;10.35;3.22;;;;;;;;;;5112229;28;20063;-58
2021/04/12 02:10:29;;;;;;;7.40;3.50;;;;;;;;;;5111891;28;20161;-59
2021/04/12 02:12:57;;;;;;;12.65;2.83;;;;;;;;;;5110755;28;20494;-59
2021/04/12 02:15:22;;;;;;;7.93;3.13;;;;;;;;;;5111322;28;20042;-59
2021/04/12 02:17:52;;;;;;;10.03;3.33;;;;;;;;;;5111791;28;20462;-64
2021/04/12 02:20:27;;;;;;;10.02;3.22;;;;;;;;;;5111906;28;20061;-60
2021/04/12 02:23:02;;;;;;;8.93;3.13;;;;;;;;;;5111695;28;20030;-60
2021/04/12 02:25:27;;;;;;;8.32;3.00;;;;;;;;;;5111156;28;20387;-59
2021/04/12 02:28:11;;;;;;;5.57;3.37;;;;;;;;;;5112085;28;20114;-60
2021/04/12 02:30:48;;;;;;;6.75;2.80;;;;;;;;;;5111128;28;20032;-60
2021/04/12 02:33:20;;;;;;;9.55;3.38;;;;;;;;;;5111545;28;20031;-59
2021/04/12 02:36:04;;;;;;;6.45;2.97;;;;;;;;;;5109743;28;20065;-59
2021/04/12 02:38:36;;;;;;;6.53;3.50;;;;;;;;;;5092598;28;20134;-59
2021/04/12 02:41:07;;;;;;;6.82;3.28;;;;;;;;;;5111482;28;20111;-60
2021/04/12 02:43:39;;;;;;;9.63;2.97;;;;;;;;;;5110983;28;20371;-60
2021/04/12 02:46:23;;;;;;;5.68;3.13;;;;;;;;;;5110124;28;20066;-59
2021/04/12 02:49:08;;;;;;;6.47;3.15;;;;;;;;;;5112029;28;20074;-59
2021/04/12 02:51:45;;;;;;;9.27;3.45;;;;;;;;;;5109493;28;20023;-61
2021/04/12 02:54:17;;;;;;;8.23;2.35;;;;;;;;;;5111221;28;20038;-60
2021/04/12 02:57:01;;;;;;;9.48;3.25;;;;;;;;;;5110774;28;20045;-60
2021/04/12 02:59:42;;;;;;;6.28;3.22;;;;;;;;;;5109179;28;20467;-58
2021/04/12 03:02:17;;;;;;;6.25;3.17;;;;;;;;;;5111569;28;20032;-59
2021/04/12 03:05:08;;;;;;;7.78;3.22;;;;;;;;;;5110516;28;20405;-59
2021/04/12 03:07:43;;;;;;;9.68;3.22;;;;;;;;;;5109564;28;20032;-60
2021/04/12 03:10:15;;;;;;;7.28;3.10;;;;;;;;;;5109860;28;20027;-59
2021/04/12 03:12:50;;;;;;;8.43;2.95;;;;;;;;;;5109405;28;20063;-58
2021/04/12 03:15:16;;;;;;;9.75;3.45;;;;;;;;;;5111487;28;20062;-59
2021/04/12 03:17:52;;;;;;;5.53;2.77;;;;;;;;;;5113412;28;20066;-59
2021/04/12 03:20:36;;;;;;;6.82;2.60;;;;;;;;;;5115094;28;20035;-59
2021/04/12 03:23:14;;;;;;;8.18;2.30;;;;;;;;;;5114991;28;20032;-59
2021/04/12 03:25:39;;;;;;;;;;;;;;;;;;5113364;28;20078;-59
2021/04/12 03:28:04;;;;;;;5.13;2.47;;;;;;;;;;5114834;28;19946;-58
2021/04/12 03:30:52;;;;;;;11.13;3.30;;;;;;;;;;5112858;28;20058;-59
2021/04/12 03:33:24;;;;;;;9.43;2.75;;;;;;;;;;5115076;28;20034;-60
2021/04/12 03:36:05;;;;;;;5.72;2.80;;;;;;;;;;5114134;28;20125;-60
2021/04/12 03:39:00;;;;;;;6.78;2.50;;;;;;;;;;5112601;28;20031;-59
2021/04/12 03:41:40;;;;;;;6.68;2.63;;;;;;;;;;5113335;28;20058;-60
2021/04/12 03:44:06;;;;;;;6.13;2.22;;;;;;;;;;5114373;28;20078;-60
2021/04/12 03:46:53;;;;;;;9.20;2.37;;;;;;;;;;5113698;28;20047;-58
2021/04/12 03:49:23;;;;;;;6.28;2.20;;;;;;;;;;5112966;28;20028;-60
2021/04/12 03:52:06;;;;;;;4.00;1.77;;;;;;;;;;5114018;28;20036;-60
2021/04/12 03:54:47;;;;;;;6.18;2.05;;;;;;;;;;5112385;28;20038;-58
2021/04/12 03:57:12;;;;;;;6.45;2.30;;;;;;;;;;5114263;28;20031;-59
2021/04/12 03:59:41;;;;;;;3.10;1.60;;;;;;;;;;5113406;28;20063;-58
2021/04/12 04:02:13;;;;;;;7.43;1.80;;;;;;;;;;5113990;28;20042;-59
2021/04/12 04:04:55;;;;;;;3.78;1.40;;;;;;;;;;5113588;28;20031;-60
2021/04/12 04:07:39;;;;;;;5.78;1.77;;;;;;;;;;5113051;28;20035;-59
2021/04/12 04:10:11;;;;;;;7.00;2.90;;;;;;;;;;5114131;28;20028;-59
2021/04/12 04:12:55;;;;;;;6.70;2.70;;;;;;;;;;5113245;28;20061;-58
2021/04/12 04:15:20;;;;;;;8.18;2.30;;;;;;;;;;5114065;27;20110;-59
2021/04/12 04:18:06;;;;;;;6.07;1.40;;;;;;;;;;5113344;28;20082;-60
2021/04/12 04:20:51;;;;;;;6.25;1.90;;;;;;;;;;5113118;28;20448;-60
2021/04/12 04:23:35;;;;;;;11.55;1.58;;;;;;;;;;5112354;28;20031;-61
2021/04/12 04:26:07;;;;;;;9.63;2.20;;;;;;;;;;5113917;28;20062;-60
2021/04/12 04:28:33;;;;;;;4.25;1.40;;;;;;;;;;5111317;28;20047;-58
2021/04/12 04:31:11;;;;;;;3.80;1.85;;;;;;;;;;5113654;28;20371;-59
2021/04/12 04:33:39;;;;;;;4.32;1.58;;;;;;;;;;5111757;28;20478;-58
2021/04/12 04:36:25;;;;;;;4.93;2.08;;;;;;;;;;5095138;28;20464;-59
2021/04/12 04:38:55;;;;;;;3.85;1.45;;;;;;;;;;5112860;28;20089;-60
2021/04/12 04:41:25;;;;;;;4.30;1.88;;;;;;;;;;5113638;28;20031;-59
2021/04/12 04:43:50;;;;;;;8.20;2.55;;;;;;;;;;5111647;28;20074;-59
2021/04/12 04:46:24;;;;;;;3.63;2.05;;;;;;;;;;5113442;28;20111;-59
2021/04/12 04:48:52;;;;;;;5.20;2.05;;;;;;;;;;5112719;28;20035;-59
2021/04/12 04:51:26;;;;;;;5.95;2.25;;;;;;;;;;5113085;28;20023;-59
2021/04/12 04:54:00;;;;;;;7.70;2.22;;;;;;;;;;5112705;28;20026;-59
2021/04/12 04:56:34;;;;;;;6.82;3.15;;;;;;;;;;5113499;28;20072;-58
2021/04/12 04:59:19;;;;;;;8.32;3.15;;;;;;;;;;5112077;28;20130;-59
2021/04/12 05:01:49;;;;;;;8.48;3.50;;;;;;;;;;5110972;28;20464;-60
2021/04/12 05:04:33;;;;;;;10.00;4.10;;;;;;;;;;5111852;28;20039;-60
2021/04/12 05:07:18;;;;;;;14.50;4.68;;;;;;;;;;5111138;28;20035;-59
2021/04/12 05:10:02;;;;;;;46.67;9.98;;;;;;;;;;5110899;28;20028;-59
2021/04/12 05:12:43;;;;;;;38.63;9.93;;;;;;;;;;5111473;28;20111;-59
2021/04/12 05:15:20;;;;;;;16.25;5.22;;;;;;;;;;5112588;28;20035;-60
2021/04/12 05:18:06;;;;;;;11.25;4.35;;;;;;;;;;5112424;28;20038;-60
2021/04/12 05:20:49;;;;;;;11.52;3.50;;;;;;;;;;5090758;28;20043;-60
2021/04/12 05:23:34;;;;;;;8.48;3.17;;;;;;;;;;5111468;28;20467;-59
2021/04/12 05:26:08;;;;;;;5.53;2.78;;;;;;;;;;5110939;28;20185;-60
2021/04/12 05:28:43;;;;;;;4.97;2.83;;;;;;;;;;5112749;28;20042;-60
2021/04/12 05:31:20;;;;;;;6.80;2.70;;;;;;;;;;5112593;28;20026;-58
2021/04/12 05:34:04;;;;;;;5.28;2.63;;;;;;;;;;5111762;28;20019;-59
2021/04/12 05:36:41;;;;;;;5.30;3.28;;;;;;;;;;5112435;28;20032;-60
2021/04/12 05:39:12;;;;;;;7.38;3.00;;;;;;;;;;5111817;28;20114;-59
2021/04/12 05:41:57;;;;;;;8.00;3.05;;;;;;;;;;5110870;28;20479;-60
2021/04/12 05:44:25;;;;;;;7.22;2.90;;;;;;;;;;5112635;28;20431;-60
2021/04/12 05:47:05;;;;;;;5.93;2.55;;;;;;;;;;5111602;28;20016;-60
2021/04/12 05:49:49;;;;;;;6.53;2.78;;;;;;;;;;5112244;28;20040;-60
2021/04/12 05:52:18;;;;;;;6.63;2.88;;;;;;;;;;5112395;28;20524;-59
2021/04/12 05:55:02;;;;;;;6.07;2.38;;;;;;;;;;5111802;28;20066;-57
2021/04/12 05:57:35;;;;;;;7.80;2.85;;;;;;;;;;5112074;28;20032;-59
2021/04/12 06:00:04;;;;;;;7.03;3.47;;;;;;;;;;5111055;28;20052;-60
2021/04/12 06:02:36;;;;;;;6.25;3.38;;;;;;;;;;5111507;28;20097;-59
2021/04/12 06:05:08;;;;;;;9.35;2.97;;;;;;;;;;5111200;28;20031;-58
2021/04/12 06:07:47;;;;;;;7.05;3.30;;;;;;;;;;5111865;28;20170;-59
2021/04/12 06:10:24;;;;;;;8.48;3.53;;;;;;;;;;5112007;28;20028;-59
2021/04/12 06:12:49;;;;;;;8.40;3.53;;;;;;;;;;5111286;28;20042;-59
2021/04/12 06:15:33;;;;;;;6.57;3.00;;;;;;;;;;5110565;28;20027;-59
2021/04/12 06:18:10;;;;;;;8.90;3.83;;;;;;;;;;5111163;28;20035;-60
2021/04/12 06:20:55;;;;;;;7.68;3.20;;;;;;;;;;5111958;28;20030;-59
2021/04/12 06:23:26;;;;;;;6.35;2.67;;;;;;;;;;5111890;28;20086;-59
2021/04/12 06:26:10;;;;;;;6.80;2.90;;;;;;;;;;5111278;28;20471;-59
2021/04/12 06:28:38;;;;;;;11.82;3.53;;;;;;;;;;5093258;28;20036;-59
2021/04/12 06:31:09;;;;;;;8.65;2.78;;;;;;;;;;5094201;28;20027;-60
2021/04/12 06:33:44;;;;;;;14.45;4.05;;;;;;;;;;5098562;28;20526;-60
2021/04/12 06:36:15;;;;;;;21.17;6.68;;;;;;;;;;5089148;28;20378;-61
2021/04/12 06:39:00;;;;;;;17.67;5.75;;;;;;;;;;5091223;28;20040;-60
2021/04/12 06:41:44;;;;;;;12.82;3.53;;;;;;;;;;5090975;28;20024;-59
2021/04/12 06:44:27;;;;;;;22.05;6.97;;;;;;;;;;5090898;28;20040;-60
2021/04/12 06:46:55;;;;;;;42.97;12.32;;;;;;;;;;5090909;28;20147;-60
2021/04/12 06:49:42;;;;;;;32.40;10.30;;;;;;;;;;5091413;28;20544;-61
2021/04/12 06:52:07;;;;;;;39.80;10.13;;;;;;;;;;5094282;28;20040;-60
2021/04/12 06:54:51;;;;;;;36.70;10.50;;;;;;;;;;5095480;28;20020;-59
2021/04/12 06:57:25;;;;;;;21.67;7.00;;;;;;;;;;5093189;28;20096;-59
2021/04/12 07:00:09;;;;;;;20.73;6.40;;;;;;;;;;5092661;28;20477;-60
2021/04/12 07:02:37;;;;;;;18.48;5.60;;;;;;;;;;5107028;27;20035;-59
2021/04/12 07:05:08;;;;;;;9.55;2.78;;;;;;;;;;5114552;27;20106;-60
2021/04/12 07:07:40;;;;;;;9.02;2.80;;;;;;;;;;5115015;28;20092;-60
2021/04/12 07:10:11;;;;;;;5.22;2.13;;;;;;;;;;5114401;28;20039;-60
2021/04/12 07:12:57;;;;;;;4.20;2.30;;;;;;;;;;5114306;27;20043;-60
2021/04/12 07:15:42;;;;;;;8.18;2.05;;;;;;;;;;5114070;28;20031;-60
2021/04/12 07:18:10;;;;;;;5.40;2.30;;;;;;;;;;5105322;27;20131;-59
2021/04/12 07:20:47;;;;;;;7.03;2.28;;;;;;;;;;5114602;28;20137;-60
2021/04/12 07:23:40;;;;;;;5.05;1.70;;;;;;;;;;5114484;28;20058;-60
2021/04/12 07:26:09;;;;;;;5.65;2.30;;;;;;;;;;5112684;28;20098;-60
2021/04/12 07:28:43;;;;;;;5.00;1.83;;;;;;;;;;5114565;28;20061;-61
2021/04/12 07:31:16;;;;;;;6.20;2.63;;;;;;;;;;5113712;28;20137;-59
2021/04/12 07:33:48;;;;;;;7.55;2.13;;;;;;;;;;5113559;28;20037;-60
2021/04/12 07:36:16;;;;;;;4.80;1.30;;;;;;;;;;5112742;28;20500;-60
2021/04/12 07:38:51;;;;;;;3.85;1.38;;;;;;;;;;5113506;28;20043;-61
2021/04/12 07:41:16;;;;;;;6.53;2.63;;;;;;;;;;5123348;28;20051;-59
2021/04/12 07:44:00;;;;;;;4.40;1.40;;;;;;;;;;5125948;28;20027;-60
2021/04/12 07:46:29;;;;;;;6.55;2.35;;;;;;;;;;5124389;28;20039;-60
2021/04/12 07:49:27;;;;;;;2.90;1.00;;;;;;;;;;5113954;28;20092;-59
2021/04/12 07:52:11;;;;;;;10.65;2.60;;;;;;;;;;5114906;28;20031;-59
2021/04/12 07:54:49;;;;;;;2.92;1.17;;;;;;;;;;5115959;28;20032;-61
2021/04/12 07:57:20;;;;;;;4.45;1.60;;;;;;;;;;5102351;27;20098;-60
2021/04/12 08:00:04;;;;;;;4.68;2.17;;;;;;;;;;5112434;28;20032;-61
2021/04/12 08:02:44;;;;;;;3.60;1.35;;;;;;;;;;5111111;28;20040;-60
2021/04/12 08:05:31;;;;;;;5.05;1.70;;;;;;;;;;5113276;28;20052;-60
2021/04/12 08:08:06;;;;;;;5.45;2.10;;;;;;;;;;5113129;28;20443;-59
2021/04/12 08:10:37;;;;;;;2.05;0.90;;;;;;;;;;5095303;28;20413;-59
2021/04/12 08:13:18;;;;;;;3.45;1.10;;;;;;;;;;5112944;28;20035;-59
2021/04/12 08:15:52;;;;;;;8.45;2.63;;;;;;;;;;5113667;28;20028;-59
2021/04/12 08:18:33;;;;;;;22.42;6.90;;;;;;;;;;5112789;28;20095;-60
2021/04/12 08:20:58;;;;;;;12.20;3.75;;;;;;;;;;5112864;28;20042;-58
2021/04/12 08:23:58;;;;;;;21.13;5.70;;;;;;;;;;5111982;28;20484;-59
2021/04/12 08:26:26;;;;;;;14.18;5.30;;;;;;;;;;5113576;28;20019;-60
2021/04/12 08:29:10;;;;;;;15.63;6.15;;;;;;;;;;5113336;27;20028;-60
2021/04/12 08:31:54;;;;;;;7.88;2.35;;;;;;;;;;5113028;28;20031;-61
2021/04/12 08:34:38;;;;;;;17.27;4.72;;;;;;;;;;5112662;28;20036;-58
2021/04/12 08:37:19;;;;;;;11.25;3.85;;;;;;;;;;5111013;28;20468;-61
2021/04/12 08:39:50;;;;;;;8.70;2.90;;;;;;;;;;5113098;28;20028;-61
2021/04/12 08:42:32;;;;;;;8.48;3.30;;;;;;;;;;5111039;28;20077;-60
2021/04/12 08:45:05;;;;;;;8.52;2.78;;;;;;;;;;5111217;28;20034;-60
2021/04/12 08:47:30;;;;;;;8.02;3.38;;;;;;;;;;5094585;28;20059;-60
2021/04/12 08:50:08;;;;;;;4.70;3.57;;;;;;;;;;5112758;28;20093;-60
2021/04/12 08:52:42;;;;;;;6.65;3.78;;;;;;;;;;5112656;28;20448;-59
2021/04/12 08:55:17;;;;;;;5.40;3.83;;;;;;;;;;5112098;28;20119;-60
2021/04/12 08:57:51;;;;;;;7.95;5.03;;;;;;;;;;5112312;28;20136;-59
2021/04/12 09:00:26;;;;;;;4.13;3.63;;;;;;;;;;5109982;27;20100;-58
2021/04/12 09:03:10;;;;;;;5.15;3.22;;;;;;;;;;5094062;28;20036;-59
2021/04/12 09:05:51;;;;;;;5.07;4.07;;;;;;;;;;5112556;28;20110;-59
2021/04/12 09:08:22;;;;;;;8.45;4.45;;;;;;;;;;5112016;28;20032;-60
2021/04/12 09:11:07;;;;;;;6.95;5.38;;;;;;;;;;5106336;28;20032;-60
2021/04/12 09:13:45;;;;;;;6.95;4.45;;;;;;;;;;5090740;28;20035;-60
2021/04/12 09:16:29;;;;;;;5.63;3.83;;;;;;;;;;5091158;28;20043;-60
2021/04/12 09:19:09;;;;;;;4.60;3.65;;;;;;;;;;5092222;28;20341;-60
2021/04/12 09:21:53;;;;;;;4.15;3.70;;;;;;;;;;5092121;28;20024;-61
2021/04/12 09:24:21;;;;;;;4.88;3.90;;;;;;;;;;5091223;28;20502;-59
2021/04/12 09:26:58;;;;;;;4.50;4.03;;;;;;;;;;5091043;28;20039;-62
2021/04/12 09:29:23;;;;;;;;;;;;;;;;;;5091679;28;20036;-59
2021/04/12 09:32:07;;;;;;;11.40;4.93;;;;;;;;;;5090286;28;19915;-60
2021/04/12 09:34:53;;;;;;;10.88;4.70;;;;;;;;;;5091482;28;20458;-60
2021/04/12 09:37:37;;;;;;;3.35;2.13;;;;;;;;;;5073048;28;20028;-60
2021/04/12 09:40:13;;;;;;;14.02;3.65;;;;;;;;;;5095746;28;20507;-60
2021/04/12 09:42:58;;;;;;;3.95;2.85;;;;;;;;;;5111333;28;20132;-60
2021/04/12 09:45:38;;;;;;;5.75;2.47;;;;;;;;;;5111564;28;20232;-60
2021/04/12 09:48:10;;;;;;;17.42;3.28;;;;;;;;;;5112341;28;20024;-64
2021/04/12 09:50:54;;;;;;;5.47;3.60;;;;;;;;;;5112361;28;20058;-60
2021/04/12 09:53:38;;;;;;;19.20;5.60;;;;;;;;;;5109144;28;20172;-60
2021/04/12 09:56:03;;;;;;;7.53;4.85;;;;;;;;;;5111263;28;20125;-60
2021/04/12 09:58:47;;;;;;;5.97;3.50;;;;;;;;;;5110316;28;20495;-59
2021/04/12 10:01:26;;;;;;;27.67;3.65;;;;;;;;;;5109870;28;20043;-59
2021/04/12 10:03:57;;;;;;;3.03;2.38;;;;;;;;;;5111877;28;20074;-60
2021/04/12 10:06:22;;;;;;;3.63;2.38;;;;;;;;;;5111262;28;20027;-62
2021/04/12 10:08:51;;;;;;;3.53;2.43;;;;;;;;;;5111639;28;20038;-59
2021/04/12 10:11:19;;;;;;;3.95;2.58;;;;;;;;;;5110824;28;20034;-60
2021/04/12 10:14:07;;;;;;;3.28;2.30;;;;;;;;;;5112148;28;20111;-59
2021/04/12 10:16:35;;;;;;;6.13;2.40;;;;;;;;;;5110800;28;20032;-61
2021/04/12 10:19:07;;;;;;;3.55;2.20;;;;;;;;;;5108586;28;20043;-60
2021/04/12 10:21:41;;;;;;;3.47;2.30;;;;;;;;;;5111512;28;20081;-60
2021/04/12 10:24:13;;;;;;;3.17;1.97;;;;;;;;;;5111658;28;20278;-59
2021/04/12 10:26:42;;;;;;;2.13;1.80;;;;;;;;;;5113723;28;20282;-60
2021/04/12 10:29:37;;;;;;;2.87;1.57;;;;;;;;;;5115690;28;20267;-60
2021/04/12 10:32:08;;;;;;;3.87;2.20;;;;;;;;;;5101536;28;20339;-60
2021/04/12 10:34:40;;;;;;;2.05;1.65;;;;;;;;;;5115130;28;20264;-59
2021/04/12 10:37:14;;;;;;;8.43;3.50;;;;;;;;;;5116050;28;20059;-59
2021/04/12 10:39:45;;;;;;;6.85;2.42;;;;;;;;;;5113615;28;20172;-60
2021/04/12 10:42:29;;;;;;;3.00;1.80;;;;;;;;;;5115014;28;20035;-58
2021/04/12 10:45:03;;;;;;;8.23;3.53;;;;;;;;;;5115260;28;20031;-59
2021/04/12 10:53:25;;;;;;;7.80;3.03;;;;;;;;;;5498605;23;20472;-56
2021/04/12 10:56:06;;;;;;;12.73;4.13;;;;;;;;;;4931623;29;20035;-55
2021/04/12 10:58:50;;;;;;;14.73;5.37;;;;;;;;;;4916850;29;20372;-55
2021/04/12 11:01:34;;;;;;;3.80;2.07;;;;;;;;;;4936259;29;20270;-56
2021/04/12 11:04:31;;;;;;;7.83;3.50;;;;;;;;;;4937083;29;20348;-56
2021/04/12 11:07:08;;;;;;;6.23;2.50;;;;;;;;;;4933090;29;20642;-54
2021/04/12 11:09:40;;;;;;;2.90;1.80;;;;;;;;;;4937406;29;20273;-56
2021/04/12 11:12:15;;;;;;;2.10;1.60;;;;;;;;;;4937122;29;20313;-54
2021/04/12 11:14:52;;;;;;;1.73;1.33;;;;;;;;;;4936193;29;20044;-54
2021/04/12 11:17:17;;;;;;;3.30;1.80;;;;;;;;;;4936371;29;20123;-55
2021/04/12 11:19:49;;;;;;;5.83;2.77;;;;;;;;;;4937512;29;20075;-56
2021/04/12 11:22:27;;;;;;;3.27;1.60;;;;;;;;;;4936883;29;20153;-56
2021/04/12 11:25:06;;;;;;;6.93;3.03;;;;;;;;;;4935585;29;20497;-56
2021/04/12 11:27:31;;;;;;;1.77;1.23;;;;;;;;;;4935566;29;20040;-55
2021/04/12 11:30:16;;;;;;;2.83;1.60;;;;;;;;;;4935822;29;20294;-56
2021/04/12 11:32:42;;;;;;;1.80;1.30;;;;;;;;;;4936654;29;20055;-57
2021/04/12 11:35:09;;;;;;;2.83;1.37;;;;;;;;;;4936913;29;20388;-58
2021/04/12 11:37:55;;;;;;;4.33;1.90;;;;;;;;;;4936242;29;20110;-57
2021/04/12 11:40:29;;;;;;;11.77;4.07;;;;;;;;;;4937140;29;20278;-57
2021/04/12 11:42:58;;;;;;;10.57;3.00;;;;;;;;;;4935826;29;20297;-57
2021/04/12 11:45:29;;;;;;;12.33;4.57;;;;;;;;;;4935367;29;20261;-57
2021/04/12 11:48:00;;;;;;;7.77;2.93;;;;;;;;;;4937232;29;20305;-56
2021/04/12 11:50:28;;;;;;;4.80;1.73;;;;;;;;;;4936670;29;20269;-56
2021/04/12 11:52:56;;;;;;;2.77;1.70;;;;;;;;;;4919270;29;20317;-57
2021/04/12 11:55:30;;;;;;;3.50;1.60;;;;;;;;;;4935461;29;20602;-56
2021/04/12 11:58:14;;;;;;;2.60;1.73;;;;;;;;;;4936877;29;20758;-57
2021/04/12 12:00:45;;;;;;;3.17;1.67;;;;;;;;;;4937031;29;20040;-56
2021/04/12 12:03:10;;;;;;;3.17;1.47;;;;;;;;;;4936768;29;20054;-57
2021/04/12 12:05:38;;;;;;;4.10;1.27;;;;;;;;;;4937064;29;20051;-57
2021/04/12 12:08:09;;;;;;;5.03;1.80;;;;;;;;;;4934677;29;20268;-58
2021/04/12 12:10:44;;;;;;;3.33;1.03;;;;;;;;;;4936754;29;20063;-56
2021/04/12 12:13:28;;;;;;;2.40;0.90;;;;;;;;;;4936300;29;20468;-57
2021/04/12 12:16:04;;;;;;;2.43;1.27;;;;;;;;;;4936565;29;20040;-56
2021/04/12 12:18:32;;;;;;;2.30;1.10;;;;;;;;;;4935975;29;20069;-55
2021/04/12 12:21:10;;;;;;;4.43;1.33;;;;;;;;;;4935341;29;20035;-55
2021/04/12 12:23:41;;;;;;;5.53;1.93;;;;;;;;;;4934932;29;20333;-55
2021/04/12 12:26:09;;;;;;;3.37;2.27;;;;;;;;;;4936393;29;20047;-56
2021/04/12 12:28:42;;;;;;;3.33;1.40;;;;;;;;;;4937286;29;20036;-57
2021/04/12 12:31:33;;;;;;;1.07;0.80;;;;;;;;;;4941886;29;20066;-57
2021/04/12 12:34:17;;;;;;;4.37;1.00;;;;;;;;;;4940466;29;20024;-56
2021/04/12 12:37:01;;;;;;;3.07;1.40;;;;;;;;;;4936930;29;20186;-57
2021/04/12 12:39:37;;;;;;;7.00;2.10;;;;;;;;;;4935728;29;20047;-55
2021/04/12 12:42:05;;;;;;;4.88;1.30;;;;;;;;;;4936187;29;20119;-57
2021/04/12 12:44:31;;;;;;;4.23;2.13;;;;;;;;;;4937261;29;20063;-56
2021/04/12 12:47:03;;;;;;;2.55;1.10;;;;;;;;;;4936580;29;20112;-55
2021/04/12 12:49:30;;;;;;;3.30;1.10;;;;;;;;;;4935870;29;20417;-56
2021/04/12 12:51:57;;;;;;;3.77;1.80;;;;;;;;;;4936031;29;20034;-56
2021/04/12 12:54:28;;;;;;;2.60;1.37;;;;;;;;;;4933653;29;20048;-55
2021/04/12 12:57:01;;;;;;;5.00;1.53;;;;;;;;;;4935861;29;20028;-56
2021/04/12 12:59:32;;;;;;;5.93;1.37;;;;;;;;;;4935017;29;20040;-54
2021/04/12 13:02:10;;;;;;;2.47;1.37;;;;;;;;;;4935673;29;20273;-56
2021/04/12 13:04:38;;;;;;;3.70;1.90;;;;;;;;;;4934066;29;20262;-56
2021/04/12 13:07:11;;;;;;;4.97;2.07;;;;;;;;;;4935309;29;20281;-56
2021/04/12 13:09:39;;;;;;;3.03;1.10;;;;;;;;;;4934682;29;20262;-57
2021/04/12 13:12:04;;;;;;;3.27;1.50;;;;;;;;;;4935216;29;20354;-57
2021/04/12 13:14:35;;;;;;;3.85;1.55;;;;;;;;;;4934061;29;20491;-56
2021/04/12 13:17:01;;;;;;;4.63;2.20;;;;;;;;;;4935263;29;20037;-57
2021/04/12 13:19:41;;;;;;;6.03;1.77;;;;;;;;;;4933437;29;20433;-57
2021/04/12 13:22:07;;;;;;;2.63;1.10;;;;;;;;;;4934995;29;20035;-57
2021/04/12 13:24:34;;;;;;;5.05;1.65;;;;;;;;;;4934935;29;20054;-56
2021/04/12 13:27:06;;;;;;;4.63;2.20;;;;;;;;;;4935240;29;20031;-55
2021/04/12 13:29:43;;;;;;;4.20;1.23;;;;;;;;;;4933327;29;20040;-54
2021/04/12 13:32:08;;;;;;;;;;;;;;;;;;4935646;29;20114;-55
2021/04/12 13:34:40;;;;;;;4.37;1.37;;;;;;;;;;4933281;29;19950;-55
2021/04/12 13:37:12;;;;;;;4.17;1.40;;;;;;;;;;4965835;28;20082;-56
2021/04/12 13:39:45;;;;;;;3.47;1.20;;;;;;;;;;4934741;29;20170;-57
2021/04/12 13:42:13;;;;;;;2.10;1.10;;;;;;;;;;4934915;29;20035;-54
2021/04/12 13:44:43;;;;;;;3.57;1.37;;;;;;;;;;4934306;29;20490;-55
2021/04/12 13:47:14;;;;;;;4.83;1.27;;;;;;;;;;4933783;29;20043;-57
2021/04/12 13:49:43;;;;;;;2.57;1.43;;;;;;;;;;4965740;28;20301;-55
2021/04/12 13:52:11;;;;;;;3.30;1.70;;;;;;;;;;4934242;28;20277;-55
2021/04/12 13:54:42;;;;;;;6.57;1.33;;;;;;;;;;4934159;29;20043;-55
2021/04/12 13:57:13;;;;;;;4.17;1.60;;;;;;;;;;4934676;29;20038;-55
2021/04/12 13:59:40;;;;;;;4.17;1.87;;;;;;;;;;4934050;29;20055;-57
2021/04/12 14:02:12;;;;;;;3.90;1.70;;;;;;;;;;4933888;29;20026;-56
2021/04/12 14:04:39;;;;;;;5.20;1.53;;;;;;;;;;4934325;29;20079;-56
2021/04/12 14:07:08;;;;;;;3.70;1.40;;;;;;;;;;4934412;29;20036;-55
2021/04/12 14:09:41;;;;;;;5.63;2.20;;;;;;;;;;4934290;29;20039;-55
2021/04/12 14:12:08;;;;;;;2.37;1.60;;;;;;;;;;4934512;29;20388;-56
2021/04/12 14:14:34;;;;;;;6.13;1.77;;;;;;;;;;4934519;29;20490;-56
2021/04/12 14:17:09;;;;;;;8.77;3.05;;;;;;;;;;4933288;29;20118;-56
2021/04/12 14:19:39;;;;;;;3.50;1.67;;;;;;;;;;4934159;29;20036;-55
2021/04/12 14:22:08;;;;;;;4.17;1.73;;;;;;;;;;4933916;29;20073;-57
2021/04/12 14:24:36;;;;;;;2.70;1.30;;;;;;;;;;4934099;29;20079;-55
2021/04/12 14:27:07;;;;;;;6.50;2.10;;;;;;;;;;4932838;29;20040;-57
2021/04/12 14:29:40;;;;;;;3.63;1.13;;;;;;;;;;4929524;29;20059;-57
2021/04/12 14:32:11;;;;;;;3.40;1.50;;;;;;;;;;4933940;29;20036;-57
2021/04/12 14:34:50;;;;;;;7.87;1.10;;;;;;;;;;4934044;29;20028;-58
2021/04/12 14:37:24;;;;;;;7.10;1.97;;;;;;;;;;4933830;29;20111;-57
2021/04/12 14:39:52;;;;;;;3.50;1.17;;;;;;;;;;4933259;29;20043;-58
2021/04/12 14:42:19;;;;;;;5.67;1.60;;;;;;;;;;4933229;29;20035;-58
2021/04/12 14:45:05;;;;;;;4.03;1.60;;;;;;;;;;4933002;29;20067;-54
2021/04/12 14:47:33;;;;;;;6.50;2.00;;;;;;;;;;4933440;29;20172;-57
2021/04/12 14:50:04;;;;;;;5.57;1.87;;;;;;;;;;4934138;29;20234;-56
2021/04/12 14:52:34;;;;;;;3.10;1.37;;;;;;;;;;4932873;29;20040;-58
2021/04/12 14:55:09;;;;;;;3.20;1.20;;;;;;;;;;4928149;29;20102;-58
2021/04/12 14:57:37;;;;;;;3.60;1.47;;;;;;;;;;4932419;29;20044;-59
2021/04/12 15:00:17;;;;;;;3.83;1.80;;;;;;;;;;4933253;29;20467;-57
2021/04/12 15:02:55;;;;;;;2.43;1.10;;;;;;;;;;4933378;29;20488;-56
2021/04/12 15:05:41;;;;;;;4.07;1.43;;;;;;;;;;4934186;29;20110;-56
2021/04/12 15:08:13;;;;;;;3.93;1.63;;;;;;;;;;4929986;29;20106;-57
2021/04/12 15:10:40;;;;;;;5.27;1.60;;;;;;;;;;4933427;29;20032;-57
2021/04/12 15:13:11;;;;;;;3.23;1.43;;;;;;;;;;4918870;29;20093;-57
2021/04/12 15:15:40;;;;;;;4.90;1.63;;;;;;;;;;4937310;29;20136;-57
2021/04/12 15:18:08;;;;;;;4.23;1.53;;;;;;;;;;4937462;29;20054;-57
2021/04/12 15:20:39;;;;;;;6.80;1.90;;;;;;;;;;4937320;29;20143;-56
2021/04/12 15:23:10;;;;;;;3.07;1.40;;;;;;;;;;4937074;29;20122;-57
2021/04/12 15:25:41;;;;;;;6.20;2.00;;;;;;;;;;4937040;29;20165;-57
2021/04/12 15:28:11;;;;;;;3.67;1.73;;;;;;;;;;4936585;29;20036;-58
2021/04/12 15:30:38;;;;;;;3.33;1.20;;;;;;;;;;4936972;29;20136;-57
2021/04/12 15:33:14;;;;;;;2.53;1.30;;;;;;;;;;4936280;29;20428;-54